Terminal Aerodrome Forecast
Issued by NWS Topeka, KS

Home | Current Version | Previous Version | Text Only | Print | Product List | Glossary On
Versions: 1 2 3 4 5 6 7 8 9 10 11 12 13 14
000
FTUS43 KTOP 280500
TAFTOP
TAF
KTOP 280520Z 2806/2906 00000KT P6SM SKC
     FM281100 00000KT 3SM MIFG SKC
     FM281400 16005KT P6SM SCT060=

USA.gov is the U.S. government's official web portal to all federal, state and local government web resources and services.